sensor_id;sensor_type;location;lat;lon;timestamp;P1;durP1;ratioP1;P2;durP2;ratioP2
60241;SDS011;46103;52.076;113.488;2022-08-01T00:01:05;11.55;;;3.63;;
60241;SDS011;46103;52.076;113.488;2022-08-01T00:04:08;13.25;;;3.97;;
60241;SDS011;46103;52.076;113.488;2022-08-01T00:07:12;14.25;;;3.90;;
60241;SDS011;46103;52.076;113.488;2022-08-01T00:10:17;12.05;;;3.58;;
60241;SDS011;46103;52.076;113.488;2022-08-01T00:13:25;13.60;;;3.70;;
60241;SDS011;46103;52.076;113.488;2022-08-01T00:16:29;6.13;;;3.00;;
60241;SDS011;46103;52.076;113.488;2022-08-01T00:19:33;11.65;;;3.53;;
60241;SDS011;46103;52.076;113.488;2022-08-01T00:22:37;7.95;;;3.13;;
60241;SDS011;46103;52.076;113.488;2022-08-01T00:25:41;12.90;;;3.25;;
60241;SDS011;46103;52.076;113.488;2022-08-01T00:28:45;8.57;;;2.75;;
60241;SDS011;46103;52.076;113.488;2022-08-01T00:31:49;11.95;;;3.38;;
60241;SDS011;46103;52.076;113.488;2022-08-01T00:34:53;9.38;;;3.70;;
60241;SDS011;46103;52.076;113.488;2022-08-01T00:37:59;6.07;;;3.67;;
60241;SDS011;46103;52.076;113.488;2022-08-01T00:41:02;8.75;;;3.97;;
60241;SDS011;46103;52.076;113.488;2022-08-01T00:44:07;9.57;;;3.22;;
60241;SDS011;46103;52.076;113.488;2022-08-01T00:47:11;8.88;;;3.65;;
60241;SDS011;46103;52.076;113.488;2022-08-01T00:50:15;9.95;;;3.40;;
60241;SDS011;46103;52.076;113.488;2022-08-01T00:53:18;12.48;;;4.00;;
60241;SDS011;46103;52.076;113.488;2022-08-01T00:56:23;10.25;;;3.92;;
60241;SDS011;46103;52.076;113.488;2022-08-01T00:59:28;14.13;;;4.20;;
60241;SDS011;46103;52.076;113.488;2022-08-01T01:02:33;8.65;;;4.20;;
60241;SDS011;46103;52.076;113.488;2022-08-01T01:05:47;13.13;;;5.00;;
60241;SDS011;46103;52.076;113.488;2022-08-01T01:08:58;5.93;;;3.80;;
60241;SDS011;46103;52.076;113.488;2022-08-01T01:12:11;10.50;;;3.83;;
60241;SDS011;46103;52.076;113.488;2022-08-01T01:18:43;12.18;;;4.15;;
60241;SDS011;46103;52.076;113.488;2022-08-01T01:22:06;8.45;;;3.90;;
60241;SDS011;46103;52.076;113.488;2022-08-01T01:28:51;7.95;;;3.03;;
60241;SDS011;46103;52.076;113.488;2022-08-01T01:31:57;5.15;;;3.17;;
60241;SDS011;46103;52.076;113.488;2022-08-01T01:35:09;8.65;;;3.60;;
60241;SDS011;46103;52.076;113.488;2022-08-01T01:38:21;6.60;;;3.13;;
60241;SDS011;46103;52.076;113.488;2022-08-01T01:41:29;6.63;;;3.22;;
60241;SDS011;46103;52.076;113.488;2022-08-01T01:44:33;10.07;;;3.40;;
60241;SDS011;46103;52.076;113.488;2022-08-01T01:47:39;7.75;;;3.40;;
60241;SDS011;46103;52.076;113.488;2022-08-01T01:50:45;7.07;;;3.50;;
60241;SDS011;46103;52.076;113.488;2022-08-01T01:53:51;5.90;;;3.28;;
60241;SDS011;46103;52.076;113.488;2022-08-01T02:00:03;8.43;;;3.58;;
60241;SDS011;46103;52.076;113.488;2022-08-01T02:03:10;8.55;;;4.28;;
60241;SDS011;46103;52.076;113.488;2022-08-01T02:06:15;8.80;;;3.95;;
60241;SDS011;46103;52.076;113.488;2022-08-01T02:09:20;8.40;;;3.72;;
60241;SDS011;46103;52.076;113.488;2022-08-01T02:12:26;6.75;;;3.90;;
60241;SDS011;46103;52.076;113.488;2022-08-01T02:15:33;6.00;;;3.35;;
60241;SDS011;46103;52.076;113.488;2022-08-01T02:19:01;7.15;;;4.07;;
60241;SDS011;46103;52.076;113.488;2022-08-01T02:22:16;4.97;;;3.90;;
60241;SDS011;46103;52.076;113.488;2022-08-01T02:29:22;8.60;;;4.53;;
60241;SDS011;46103;52.076;113.488;2022-08-01T02:32:33;10.55;;;4.70;;
60241;SDS011;46103;52.076;113.488;2022-08-01T02:35:41;6.70;;;4.45;;
60241;SDS011;46103;52.076;113.488;2022-08-01T02:39:09;7.65;;;5.22;;
60241;SDS011;46103;52.076;113.488;2022-08-01T02:42:16;7.75;;;5.43;;
60241;SDS011;46103;52.076;113.488;2022-08-01T02:45:24;7.53;;;5.22;;
60241;SDS011;46103;52.076;113.488;2022-08-01T02:48:29;7.47;;;5.03;;
60241;SDS011;46103;52.076;113.488;2022-08-01T02:54:41;8.02;;;5.25;;
60241;SDS011;46103;52.076;113.488;2022-08-01T02:57:48;7.35;;;4.47;;
60241;SDS011;46103;52.076;113.488;2022-08-01T03:01:02;7.00;;;4.72;;
60241;SDS011;46103;52.076;113.488;2022-08-01T03:04:09;7.15;;;5.18;;
60241;SDS011;46103;52.076;113.488;2022-08-01T03:07:13;8.63;;;5.43;;
60241;SDS011;46103;52.076;113.488;2022-08-01T03:10:20;8.88;;;5.55;;
60241;SDS011;46103;52.076;113.488;2022-08-01T03:13:25;8.57;;;5.60;;
60241;SDS011;46103;52.076;113.488;2022-08-01T03:16:32;13.50;;;6.03;;
60241;SDS011;46103;52.076;113.488;2022-08-01T03:19:38;9.85;;;6.88;;
60241;SDS011;46103;52.076;113.488;2022-08-01T03:22:44;10.13;;;6.03;;
60241;SDS011;46103;52.076;113.488;2022-08-01T03:25:50;8.73;;;6.33;;
60241;SDS011;46103;52.076;113.488;2022-08-01T03:28:57;8.90;;;6.63;;
60241;SDS011;46103;52.076;113.488;2022-08-01T03:32:04;11.73;;;6.97;;
60241;SDS011;46103;52.076;113.488;2022-08-01T03:35:10;13.10;;;7.63;;
60241;SDS011;46103;52.076;113.488;2022-08-01T03:38:14;9.38;;;6.90;;
60241;SDS011;46103;52.076;113.488;2022-08-01T03:41:24;11.80;;;7.10;;
60241;SDS011;46103;52.076;113.488;2022-08-01T03:44:35;11.65;;;7.25;;
60241;SDS011;46103;52.076;113.488;2022-08-01T03:47:43;12.00;;;7.88;;
60241;SDS011;46103;52.076;113.488;2022-08-01T03:50:50;11.00;;;6.95;;
60241;SDS011;46103;52.076;113.488;2022-08-01T03:53:55;11.48;;;7.68;;
60241;SDS011;46103;52.076;113.488;2022-08-01T03:57:02;11.10;;;7.50;;
60241;SDS011;46103;52.076;113.488;2022-08-01T04:00:08;12.50;;;7.82;;
60241;SDS011;46103;52.076;113.488;2022-08-01T04:03:13;11.32;;;7.70;;
60241;SDS011;46103;52.076;113.488;2022-08-01T04:06:17;13.77;;;8.32;;
60241;SDS011;46103;52.076;113.488;2022-08-01T04:09:21;10.38;;;7.45;;
60241;SDS011;46103;52.076;113.488;2022-08-01T04:12:25;14.32;;;7.32;;
60241;SDS011;46103;52.076;113.488;2022-08-01T04:15:29;12.13;;;7.75;;
60241;SDS011;46103;52.076;113.488;2022-08-01T04:18:32;9.45;;;6.80;;
60241;SDS011;46103;52.076;113.488;2022-08-01T04:21:36;11.30;;;7.32;;
60241;SDS011;46103;52.076;113.488;2022-08-01T04:24:44;10.35;;;6.97;;
60241;SDS011;46103;52.076;113.488;2022-08-01T04:27:58;12.85;;;7.93;;
60241;SDS011;46103;52.076;113.488;2022-08-01T04:31:05;11.90;;;7.53;;
60241;SDS011;46103;52.076;113.488;2022-08-01T04:34:12;10.93;;;7.47;;
60241;SDS011;46103;52.076;113.488;2022-08-01T04:37:20;10.38;;;7.30;;
60241;SDS011;46103;52.076;113.488;2022-08-01T04:40:24;11.27;;;7.35;;
60241;SDS011;46103;52.076;113.488;2022-08-01T04:43:29;11.55;;;7.60;;
60241;SDS011;46103;52.076;113.488;2022-08-01T04:46:33;10.18;;;7.13;;
60241;SDS011;46103;52.076;113.488;2022-08-01T04:52:50;11.75;;;7.60;;
60241;SDS011;46103;52.076;113.488;2022-08-01T04:55:54;11.73;;;8.02;;
60241;SDS011;46103;52.076;113.488;2022-08-01T04:58:58;11.93;;;8.82;;
60241;SDS011;46103;52.076;113.488;2022-08-01T05:02:21;11.02;;;8.30;;
60241;SDS011;46103;52.076;113.488;2022-08-01T05:05:25;13.70;;;8.15;;
60241;SDS011;46103;52.076;113.488;2022-08-01T05:08:29;13.68;;;8.38;;
60241;SDS011;46103;52.076;113.488;2022-08-01T05:11:33;15.52;;;8.60;;
60241;SDS011;46103;52.076;113.488;2022-08-01T05:14:36;11.98;;;7.63;;
60241;SDS011;46103;52.076;113.488;2022-08-01T05:17:40;14.20;;;8.50;;
60241;SDS011;46103;52.076;113.488;2022-08-01T05:20:47;14.73;;;8.68;;
60241;SDS011;46103;52.076;113.488;2022-08-01T05:23:50;12.25;;;7.78;;
60241;SDS011;46103;52.076;113.488;2022-08-01T05:26:55;10.63;;;8.02;;
60241;SDS011;46103;52.076;113.488;2022-08-01T05:30:00;11.20;;;7.78;;
60241;SDS011;46103;52.076;113.488;2022-08-01T05:33:03;11.50;;;8.35;;
60241;SDS011;46103;52.076;113.488;2022-08-01T05:36:07;13.68;;;8.25;;
60241;SDS011;46103;52.076;113.488;2022-08-01T05:39:11;12.80;;;8.40;;
60241;SDS011;46103;52.076;113.488;2022-08-01T05:42:15;10.75;;;8.05;;
60241;SDS011;46103;52.076;113.488;2022-08-01T05:45:19;11.30;;;8.48;;
60241;SDS011;46103;52.076;113.488;2022-08-01T05:48:23;13.40;;;8.07;;
60241;SDS011;46103;52.076;113.488;2022-08-01T05:51:26;13.45;;;9.18;;
60241;SDS011;46103;52.076;113.488;2022-08-01T05:54:30;9.77;;;7.03;;
60241;SDS011;46103;52.076;113.488;2022-08-01T05:57:34;10.20;;;7.20;;
60241;SDS011;46103;52.076;113.488;2022-08-01T06:00:41;11.48;;;7.80;;
60241;SDS011;46103;52.076;113.488;2022-08-01T06:03:45;9.48;;;7.30;;
60241;SDS011;46103;52.076;113.488;2022-08-01T06:06:49;9.95;;;7.40;;
60241;SDS011;46103;52.076;113.488;2022-08-01T06:09:53;12.07;;;7.82;;
60241;SDS011;46103;52.076;113.488;2022-08-01T06:12:57;13.27;;;8.70;;
60241;SDS011;46103;52.076;113.488;2022-08-01T06:16:00;15.43;;;8.65;;
60241;SDS011;46103;52.076;113.488;2022-08-01T06:19:04;11.30;;;8.27;;
60241;SDS011;46103;52.076;113.488;2022-08-01T06:22:08;12.70;;;7.53;;
60241;SDS011;46103;52.076;113.488;2022-08-01T06:25:12;11.13;;;7.68;;
60241;SDS011;46103;52.076;113.488;2022-08-01T06:28:21;9.13;;;7.35;;
60241;SDS011;46103;52.076;113.488;2022-08-01T06:31:26;10.98;;;6.22;;
60241;SDS011;46103;52.076;113.488;2022-08-01T06:34:35;10.05;;;6.50;;
60241;SDS011;46103;52.076;113.488;2022-08-01T06:37:39;8.18;;;5.80;;
60241;SDS011;46103;52.076;113.488;2022-08-01T06:40:43;10.43;;;6.65;;
60241;SDS011;46103;52.076;113.488;2022-08-01T06:43:47;9.95;;;6.18;;
60241;SDS011;46103;52.076;113.488;2022-08-01T06:46:50;8.77;;;5.57;;
60241;SDS011;46103;52.076;113.488;2022-08-01T06:49:54;9.27;;;5.53;;
60241;SDS011;46103;52.076;113.488;2022-08-01T06:52:58;9.73;;;5.78;;
60241;SDS011;46103;52.076;113.488;2022-08-01T06:56:02;8.30;;;5.53;;
60241;SDS011;46103;52.076;113.488;2022-08-01T06:59:06;10.27;;;7.03;;
60241;SDS011;46103;52.076;113.488;2022-08-01T07:02:10;8.63;;;5.85;;
60241;SDS011;46103;52.076;113.488;2022-08-01T07:05:13;11.00;;;6.15;;
60241;SDS011;46103;52.076;113.488;2022-08-01T07:08:17;12.82;;;6.18;;
60241;SDS011;46103;52.076;113.488;2022-08-01T07:11:21;8.73;;;5.30;;
60241;SDS011;46103;52.076;113.488;2022-08-01T07:14:26;7.97;;;5.35;;
60241;SDS011;46103;52.076;113.488;2022-08-01T07:17:30;9.38;;;6.05;;
60241;SDS011;46103;52.076;113.488;2022-08-01T07:20:35;13.65;;;6.60;;
60241;SDS011;46103;52.076;113.488;2022-08-01T07:23:53;7.35;;;5.15;;
60241;SDS011;46103;52.076;113.488;2022-08-01T07:26:57;8.82;;;6.10;;
60241;SDS011;46103;52.076;113.488;2022-08-01T07:30:21;10.00;;;6.40;;
60241;SDS011;46103;52.076;113.488;2022-08-01T07:33:24;10.63;;;6.05;;
60241;SDS011;46103;52.076;113.488;2022-08-01T07:36:49;11.23;;;5.78;;
60241;SDS011;46103;52.076;113.488;2022-08-01T07:39:55;10.85;;;6.93;;
60241;SDS011;46103;52.076;113.488;2022-08-01T07:42:59;9.57;;;6.13;;
60241;SDS011;46103;52.076;113.488;2022-08-01T07:46:03;13.00;;;6.75;;
60241;SDS011;46103;52.076;113.488;2022-08-01T07:49:08;12.98;;;7.25;;
60241;SDS011;46103;52.076;113.488;2022-08-01T07:52:11;9.80;;;6.13;;
60241;SDS011;46103;52.076;113.488;2022-08-01T07:55:16;10.18;;;7.00;;
60241;SDS011;46103;52.076;113.488;2022-08-01T07:58:20;12.52;;;7.85;;
60241;SDS011;46103;52.076;113.488;2022-08-01T08:01:23;10.27;;;5.93;;
60241;SDS011;46103;52.076;113.488;2022-08-01T08:04:27;11.38;;;6.47;;
60241;SDS011;46103;52.076;113.488;2022-08-01T08:07:31;8.68;;;6.00;;
60241;SDS011;46103;52.076;113.488;2022-08-01T08:10:35;10.07;;;6.60;;
60241;SDS011;46103;52.076;113.488;2022-08-01T08:13:42;12.90;;;7.72;;
60241;SDS011;46103;52.076;113.488;2022-08-01T08:16:46;11.60;;;7.03;;
60241;SDS011;46103;52.076;113.488;2022-08-01T08:19:50;15.05;;;7.50;;
60241;SDS011;46103;52.076;113.488;2022-08-01T08:22:53;13.30;;;6.50;;
60241;SDS011;46103;52.076;113.488;2022-08-01T08:25:58;11.77;;;7.13;;
60241;SDS011;46103;52.076;113.488;2022-08-01T08:29:02;10.55;;;6.88;;
60241;SDS011;46103;52.076;113.488;2022-08-01T08:32:06;11.80;;;6.82;;
60241;SDS011;46103;52.076;113.488;2022-08-01T08:35:11;11.02;;;6.97;;
60241;SDS011;46103;52.076;113.488;2022-08-01T08:38:24;11.73;;;6.93;;
60241;SDS011;46103;52.076;113.488;2022-08-01T08:41:34;12.65;;;7.18;;
60241;SDS011;46103;52.076;113.488;2022-08-01T08:44:42;9.05;;;6.68;;
60241;SDS011;46103;52.076;113.488;2022-08-01T08:47:46;11.48;;;6.65;;
60241;SDS011;46103;52.076;113.488;2022-08-01T08:50:52;11.10;;;7.10;;
60241;SDS011;46103;52.076;113.488;2022-08-01T08:53:56;12.65;;;7.13;;
60241;SDS011;46103;52.076;113.488;2022-08-01T08:57:01;8.93;;;7.23;;
60241;SDS011;46103;52.076;113.488;2022-08-01T09:00:06;12.80;;;7.27;;
60241;SDS011;46103;52.076;113.488;2022-08-01T09:03:12;11.27;;;7.47;;
60241;SDS011;46103;52.076;113.488;2022-08-01T09:06:17;10.68;;;7.22;;
60241;SDS011;46103;52.076;113.488;2022-08-01T09:09:21;11.77;;;7.60;;
60241;SDS011;46103;52.076;113.488;2022-08-01T09:12:25;11.23;;;7.65;;
60241;SDS011;46103;52.076;113.488;2022-08-01T09:15:39;12.35;;;7.68;;
60241;SDS011;46103;52.076;113.488;2022-08-01T09:18:46;12.23;;;7.47;;
60241;SDS011;46103;52.076;113.488;2022-08-01T09:21:57;13.48;;;7.57;;
60241;SDS011;46103;52.076;113.488;2022-08-01T09:25:09;10.50;;;7.35;;
60241;SDS011;46103;52.076;113.488;2022-08-01T09:28:14;10.07;;;7.82;;
60241;SDS011;46103;52.076;113.488;2022-08-01T09:31:17;13.45;;;7.85;;
60241;SDS011;46103;52.076;113.488;2022-08-01T09:34:29;10.27;;;7.15;;
60241;SDS011;46103;52.076;113.488;2022-08-01T09:37:36;11.13;;;7.38;;
60241;SDS011;46103;52.076;113.488;2022-08-01T09:40:50;9.90;;;6.65;;
60241;SDS011;46103;52.076;113.488;2022-08-01T09:43:54;9.02;;;6.65;;
60241;SDS011;46103;52.076;113.488;2022-08-01T09:46:58;12.40;;;8.10;;
60241;SDS011;46103;52.076;113.488;2022-08-01T09:50:09;12.07;;;7.57;;
60241;SDS011;46103;52.076;113.488;2022-08-01T09:53:12;10.57;;;7.35;;
60241;SDS011;46103;52.076;113.488;2022-08-01T09:56:38;12.75;;;8.02;;
60241;SDS011;46103;52.076;113.488;2022-08-01T09:59:46;13.00;;;7.57;;
60241;SDS011;46103;52.076;113.488;2022-08-01T10:03:23;13.57;;;8.68;;
60241;SDS011;46103;52.076;113.488;2022-08-01T10:06:28;13.00;;;7.95;;
60241;SDS011;46103;52.076;113.488;2022-08-01T10:09:33;10.90;;;8.23;;
60241;SDS011;46103;52.076;113.488;2022-08-01T10:12:42;11.63;;;8.30;;
60241;SDS011;46103;52.076;113.488;2022-08-01T10:15:50;10.40;;;7.95;;
60241;SDS011;46103;52.076;113.488;2022-08-01T10:18:54;13.38;;;9.02;;
60241;SDS011;46103;52.076;113.488;2022-08-01T10:21:58;14.48;;;9.35;;
60241;SDS011;46103;52.076;113.488;2022-08-01T10:25:03;14.93;;;9.80;;
60241;SDS011;46103;52.076;113.488;2022-08-01T10:28:13;12.10;;;9.45;;
60241;SDS011;46103;52.076;113.488;2022-08-01T10:31:25;13.82;;;9.75;;
60241;SDS011;46103;52.076;113.488;2022-08-01T10:34:33;13.00;;;9.27;;
60241;SDS011;46103;52.076;113.488;2022-08-01T10:37:36;12.13;;;8.90;;
60241;SDS011;46103;52.076;113.488;2022-08-01T10:40:54;13.18;;;9.48;;
60241;SDS011;46103;52.076;113.488;2022-08-01T10:44:07;16.40;;;9.63;;
60241;SDS011;46103;52.076;113.488;2022-08-01T10:47:12;12.10;;;9.20;;
60241;SDS011;46103;52.076;113.488;2022-08-01T10:50:28;13.23;;;9.38;;
60241;SDS011;46103;52.076;113.488;2022-08-01T10:53:50;13.82;;;9.13;;
60241;SDS011;46103;52.076;113.488;2022-08-01T10:56:57;13.98;;;8.63;;
60241;SDS011;46103;52.076;113.488;2022-08-01T11:00:03;13.13;;;9.02;;
60241;SDS011;46103;52.076;113.488;2022-08-01T11:03:07;20.13;;;10.03;;
60241;SDS011;46103;52.076;113.488;2022-08-01T11:06:15;17.57;;;9.53;;
60241;SDS011;46103;52.076;113.488;2022-08-01T11:09:27;14.65;;;9.95;;
60241;SDS011;46103;52.076;113.488;2022-08-01T11:12:39;19.63;;;14.15;;
60241;SDS011;46103;52.076;113.488;2022-08-01T11:15:45;13.07;;;9.40;;
60241;SDS011;46103;52.076;113.488;2022-08-01T11:18:51;13.07;;;10.32;;
60241;SDS011;46103;52.076;113.488;2022-08-01T11:25:03;13.13;;;9.52;;
60241;SDS011;46103;52.076;113.488;2022-08-01T11:31:36;14.20;;;9.77;;
60241;SDS011;46103;52.076;113.488;2022-08-01T11:34:52;16.25;;;10.15;;
60241;SDS011;46103;52.076;113.488;2022-08-01T11:38:17;14.77;;;10.13;;
60241;SDS011;46103;52.076;113.488;2022-08-01T11:41:31;13.48;;;9.88;;
60241;SDS011;46103;52.076;113.488;2022-08-01T11:44:50;14.80;;;10.27;;
60241;SDS011;46103;52.076;113.488;2022-08-01T11:47:53;15.35;;;10.50;;
60241;SDS011;46103;52.076;113.488;2022-08-01T11:50:59;16.52;;;10.23;;
60241;SDS011;46103;52.076;113.488;2022-08-01T11:54:03;14.90;;;10.65;;
60241;SDS011;46103;52.076;113.488;2022-08-01T11:57:12;16.95;;;10.38;;
60241;SDS011;46103;52.076;113.488;2022-08-01T12:00:17;15.80;;;9.45;;
60241;SDS011;46103;52.076;113.488;2022-08-01T12:03:28;14.43;;;9.90;;
60241;SDS011;46103;52.076;113.488;2022-08-01T12:06:36;15.55;;;9.32;;
60241;SDS011;46103;52.076;113.488;2022-08-01T12:09:46;12.13;;;8.80;;
60241;SDS011;46103;52.076;113.488;2022-08-01T12:12:58;20.77;;;9.65;;
60241;SDS011;46103;52.076;113.488;2022-08-01T12:16:09;18.02;;;11.30;;
60241;SDS011;46103;52.076;113.488;2022-08-01T12:19:21;20.23;;;10.82;;
60241;SDS011;46103;52.076;113.488;2022-08-01T12:22:25;19.63;;;11.32;;
60241;SDS011;46103;52.076;113.488;2022-08-01T12:25:29;21.38;;;11.15;;
60241;SDS011;46103;52.076;113.488;2022-08-01T12:28:38;22.52;;;12.15;;
60241;SDS011;46103;52.076;113.488;2022-08-01T12:31:43;17.05;;;10.40;;
60241;SDS011;46103;52.076;113.488;2022-08-01T12:34:47;19.30;;;10.93;;
60241;SDS011;46103;52.076;113.488;2022-08-01T12:37:54;25.83;;;12.40;;
60241;SDS011;46103;52.076;113.488;2022-08-01T12:41:00;20.23;;;11.98;;
60241;SDS011;46103;52.076;113.488;2022-08-01T12:44:12;25.25;;;12.45;;
60241;SDS011;46103;52.076;113.488;2022-08-01T12:47:18;21.08;;;11.18;;
60241;SDS011;46103;52.076;113.488;2022-08-01T12:50:23;25.75;;;12.10;;
60241;SDS011;46103;52.076;113.488;2022-08-01T12:53:34;22.35;;;12.52;;
60241;SDS011;46103;52.076;113.488;2022-08-01T12:56:42;27.92;;;13.60;;
60241;SDS011;46103;52.076;113.488;2022-08-01T12:59:48;21.90;;;12.02;;
60241;SDS011;46103;52.076;113.488;2022-08-01T13:06:12;24.20;;;14.02;;
60241;SDS011;46103;52.076;113.488;2022-08-01T13:09:19;23.48;;;13.02;;
60241;SDS011;46103;52.076;113.488;2022-08-01T13:12:24;23.23;;;13.75;;
60241;SDS011;46103;52.076;113.488;2022-08-01T13:15:32;25.38;;;14.55;;
60241;SDS011;46103;52.076;113.488;2022-08-01T13:18:47;23.90;;;14.15;;
60241;SDS011;46103;52.076;113.488;2022-08-01T13:21:56;25.15;;;14.50;;
60241;SDS011;46103;52.076;113.488;2022-08-01T13:25:11;24.02;;;15.25;;
60241;SDS011;46103;52.076;113.488;2022-08-01T13:28:22;22.00;;;14.15;;
60241;SDS011;46103;52.076;113.488;2022-08-01T13:31:32;26.88;;;14.13;;
60241;SDS011;46103;52.076;113.488;2022-08-01T13:34:36;30.23;;;14.05;;
60241;SDS011;46103;52.076;113.488;2022-08-01T13:37:41;24.17;;;14.43;;
60241;SDS011;46103;52.076;113.488;2022-08-01T13:40:45;24.38;;;14.80;;
60241;SDS011;46103;52.076;113.488;2022-08-01T13:43:49;24.15;;;14.57;;
60241;SDS011;46103;52.076;113.488;2022-08-01T13:47:01;23.85;;;13.60;;
60241;SDS011;46103;52.076;113.488;2022-08-01T13:50:17;23.67;;;14.90;;
60241;SDS011;46103;52.076;113.488;2022-08-01T13:53:21;24.77;;;14.48;;
60241;SDS011;46103;52.076;113.488;2022-08-01T13:56:25;22.30;;;14.18;;
60241;SDS011;46103;52.076;113.488;2022-08-01T13:59:30;25.30;;;15.32;;
60241;SDS011;46103;52.076;113.488;2022-08-01T14:02:34;26.70;;;14.55;;
60241;SDS011;46103;52.076;113.488;2022-08-01T14:05:38;20.40;;;13.57;;
60241;SDS011;46103;52.076;113.488;2022-08-01T14:08:43;21.85;;;14.65;;
60241;SDS011;46103;52.076;113.488;2022-08-01T14:11:47;24.38;;;16.25;;
60241;SDS011;46103;52.076;113.488;2022-08-01T14:14:50;24.15;;;15.18;;
60241;SDS011;46103;52.076;113.488;2022-08-01T14:17:54;23.60;;;14.55;;
60241;SDS011;46103;52.076;113.488;2022-08-01T14:20:58;23.15;;;13.98;;
60241;SDS011;46103;52.076;113.488;2022-08-01T14:24:06;23.38;;;15.23;;
60241;SDS011;46103;52.076;113.488;2022-08-01T14:27:11;25.27;;;14.57;;
60241;SDS011;46103;52.076;113.488;2022-08-01T14:30:16;23.60;;;14.02;;
60241;SDS011;46103;52.076;113.488;2022-08-01T14:33:19;25.85;;;15.25;;
60241;SDS011;46103;52.076;113.488;2022-08-01T14:36:23;21.27;;;14.35;;
60241;SDS011;46103;52.076;113.488;2022-08-01T14:39:32;23.92;;;14.43;;
60241;SDS011;46103;52.076;113.488;2022-08-01T14:42:37;24.65;;;13.95;;
60241;SDS011;46103;52.076;113.488;2022-08-01T14:45:41;23.48;;;13.93;;
60241;SDS011;46103;52.076;113.488;2022-08-01T14:48:45;23.88;;;14.05;;
60241;SDS011;46103;52.076;113.488;2022-08-01T14:51:48;20.38;;;13.00;;
60241;SDS011;46103;52.076;113.488;2022-08-01T14:54:52;20.45;;;13.63;;
60241;SDS011;46103;52.076;113.488;2022-08-01T14:57:56;23.88;;;13.77;;
60241;SDS011;46103;52.076;113.488;2022-08-01T15:01:00;23.73;;;13.88;;
60241;SDS011;46103;52.076;113.488;2022-08-01T15:04:03;23.17;;;13.70;;
60241;SDS011;46103;52.076;113.488;2022-08-01T15:07:11;27.33;;;13.93;;
60241;SDS011;46103;52.076;113.488;2022-08-01T15:10:15;22.13;;;13.38;;
60241;SDS011;46103;52.076;113.488;2022-08-01T15:13:19;22.20;;;12.93;;
60241;SDS011;46103;52.076;113.488;2022-08-01T15:16:22;25.42;;;13.68;;
60241;SDS011;46103;52.076;113.488;2022-08-01T15:19:27;23.13;;;13.85;;
60241;SDS011;46103;52.076;113.488;2022-08-01T15:22:31;23.95;;;13.95;;
60241;SDS011;46103;52.076;113.488;2022-08-01T15:25:35;25.35;;;14.13;;
60241;SDS011;46103;52.076;113.488;2022-08-01T15:28:43;28.40;;;15.57;;
60241;SDS011;46103;52.076;113.488;2022-08-01T15:31:48;27.88;;;14.35;;
60241;SDS011;46103;52.076;113.488;2022-08-01T15:34:52;27.15;;;14.38;;
60241;SDS011;46103;52.076;113.488;2022-08-01T15:37:56;29.90;;;15.23;;
60241;SDS011;46103;52.076;113.488;2022-08-01T15:40:59;29.10;;;15.18;;
60241;SDS011;46103;52.076;113.488;2022-08-01T15:44:04;33.33;;;15.70;;
60241;SDS011;46103;52.076;113.488;2022-08-01T15:47:07;26.42;;;16.00;;
60241;SDS011;46103;52.076;113.488;2022-08-01T15:50:12;30.67;;;15.80;;
60241;SDS011;46103;52.076;113.488;2022-08-01T15:53:15;30.48;;;15.85;;
60241;SDS011;46103;52.076;113.488;2022-08-01T15:56:19;28.80;;;15.18;;
60241;SDS011;46103;52.076;113.488;2022-08-01T15:59:23;28.20;;;14.25;;
60241;SDS011;46103;52.076;113.488;2022-08-01T16:02:27;26.70;;;15.45;;
60241;SDS011;46103;52.076;113.488;2022-08-01T16:05:30;27.05;;;14.35;;
60241;SDS011;46103;52.076;113.488;2022-08-01T16:08:34;29.35;;;15.45;;
60241;SDS011;46103;52.076;113.488;2022-08-01T16:11:38;24.38;;;14.02;;
60241;SDS011;46103;52.076;113.488;2022-08-01T16:14:51;27.75;;;14.18;;
60241;SDS011;46103;52.076;113.488;2022-08-01T16:17:55;30.73;;;15.60;;
60241;SDS011;46103;52.076;113.488;2022-08-01T16:21:03;26.00;;;13.88;;
60241;SDS011;46103;52.076;113.488;2022-08-01T16:24:06;24.42;;;15.40;;
60241;SDS011;46103;52.076;113.488;2022-08-01T16:27:10;25.63;;;14.57;;
60241;SDS011;46103;52.076;113.488;2022-08-01T16:30:14;25.90;;;14.30;;
60241;SDS011;46103;52.076;113.488;2022-08-01T16:33:17;24.63;;;14.75;;
60241;SDS011;46103;52.076;113.488;2022-08-01T16:36:40;25.48;;;14.77;;
60241;SDS011;46103;52.076;113.488;2022-08-01T16:39:44;27.45;;;14.65;;
60241;SDS011;46103;52.076;113.488;2022-08-01T16:42:48;28.02;;;14.00;;
60241;SDS011;46103;52.076;113.488;2022-08-01T16:45:52;33.08;;;14.23;;
60241;SDS011;46103;52.076;113.488;2022-08-01T16:48:56;25.38;;;13.68;;
60241;SDS011;46103;52.076;113.488;2022-08-01T16:52:00;24.35;;;14.40;;
60241;SDS011;46103;52.076;113.488;2022-08-01T16:55:05;23.67;;;13.52;;
60241;SDS011;46103;52.076;113.488;2022-08-01T16:58:09;28.70;;;13.48;;
60241;SDS011;46103;52.076;113.488;2022-08-01T17:01:13;25.52;;;13.65;;
60241;SDS011;46103;52.076;113.488;2022-08-01T17:04:37;24.98;;;13.88;;
60241;SDS011;46103;52.076;113.488;2022-08-01T17:07:41;29.85;;;14.90;;
60241;SDS011;46103;52.076;113.488;2022-08-01T17:10:45;32.28;;;14.63;;
60241;SDS011;46103;52.076;113.488;2022-08-01T17:13:49;23.55;;;13.77;;
60241;SDS011;46103;52.076;113.488;2022-08-01T17:16:52;25.45;;;13.90;;
60241;SDS011;46103;52.076;113.488;2022-08-01T17:19:56;22.25;;;13.35;;
60241;SDS011;46103;52.076;113.488;2022-08-01T17:23:00;23.67;;;12.88;;
60241;SDS011;46103;52.076;113.488;2022-08-01T17:26:04;25.40;;;13.80;;
60241;SDS011;46103;52.076;113.488;2022-08-01T17:29:07;26.42;;;13.95;;
60241;SDS011;46103;52.076;113.488;2022-08-01T17:32:12;26.88;;;14.40;;
60241;SDS011;46103;52.076;113.488;2022-08-01T17:35:15;28.02;;;14.90;;
60241;SDS011;46103;52.076;113.488;2022-08-01T17:38:20;29.33;;;15.07;;
60241;SDS011;46103;52.076;113.488;2022-08-01T17:41:26;25.73;;;13.70;;
60241;SDS011;46103;52.076;113.488;2022-08-01T17:44:30;32.72;;;15.70;;
60241;SDS011;46103;52.076;113.488;2022-08-01T17:47:34;25.50;;;15.02;;
60241;SDS011;46103;52.076;113.488;2022-08-01T17:50:52;31.40;;;14.75;;
60241;SDS011;46103;52.076;113.488;2022-08-01T17:53:56;25.83;;;14.90;;
60241;SDS011;46103;52.076;113.488;2022-08-01T17:56:59;26.60;;;14.52;;
60241;SDS011;46103;52.076;113.488;2022-08-01T18:00:04;27.80;;;14.95;;
60241;SDS011;46103;52.076;113.488;2022-08-01T18:03:09;25.75;;;14.80;;
60241;SDS011;46103;52.076;113.488;2022-08-01T18:06:14;26.65;;;14.55;;
60241;SDS011;46103;52.076;113.488;2022-08-01T18:09:20;26.88;;;14.63;;
60241;SDS011;46103;52.076;113.488;2022-08-01T18:12:24;25.15;;;14.82;;
60241;SDS011;46103;52.076;113.488;2022-08-01T18:15:28;29.67;;;15.27;;
60241;SDS011;46103;52.076;113.488;2022-08-01T18:18:35;31.67;;;14.90;;
60241;SDS011;46103;52.076;113.488;2022-08-01T18:21:44;28.50;;;15.05;;